Time;durP1;ratioP1;P1;durP2;ratioP2;P2;SDS_P1;SDS_P2;PMS_P1;PMS_P2;Temp;Humidity;BMP_temperature;BMP_pressure;BME280_temperature;BME280_humidity;BME280_pressure;Samples;Min_cycle;Max_cycle;Signal;HPM_P1;HPM_P2
2022/10/28 00:01:46;;;;;;;29.35;12.38;;;;;;;;;;4937137;29;20055;-73
2022/10/28 00:04:12;;;;;;;21.40;11.70;;;;;;;;;;4937456;29;20035;-73
2022/10/28 00:06:38;;;;;;;20.20;12.43;;;;;;;;;;4938107;29;20040;-73
2022/10/28 00:09:04;;;;;;;22.52;11.80;;;;;;;;;;4937212;29;20044;-73
2022/10/28 00:11:32;;;;;;;29.30;14.15;;;;;;;;;;4937020;29;20032;-73
2022/10/28 00:13:59;;;;;;;20.48;11.52;;;;;;;;;;4937457;29;20040;-73
2022/10/28 00:16:26;;;;;;;20.50;12.02;;;;;;;;;;4937183;29;20043;-73
2022/10/28 00:18:53;;;;;;;19.77;11.70;;;;;;;;;;4937420;29;20056;-73
2022/10/28 00:21:20;;;;;;;21.95;11.32;;;;;;;;;;4937329;29;20035;-73
2022/10/28 00:23:46;;;;;;;22.90;11.50;;;;;;;;;;4936909;29;20050;-73
2022/10/28 00:26:14;;;;;;;20.50;11.25;;;;;;;;;;4936781;29;20043;-73
2022/10/28 00:28:41;;;;;;;20.30;11.27;;;;;;;;;;4937195;29;20044;-73
2022/10/28 00:31:08;;;;;;;21.25;12.15;;;;;;;;;;4937142;29;20513;-73
2022/10/28 00:33:34;;;;;;;23.38;12.00;;;;;;;;;;4936825;29;20046;-73
2022/10/28 00:36:11;;;;;;;21.33;11.38;;;;;;;;;;4936931;29;20036;-73
2022/10/28 00:38:37;;;;;;;22.73;11.48;;;;;;;;;;4937623;29;20047;-73
2022/10/28 00:41:03;;;;;;;20.20;11.35;;;;;;;;;;4936353;29;20090;-73
2022/10/28 00:43:33;;;;;;;23.95;11.50;;;;;;;;;;4937256;29;20044;-73
2022/10/28 00:45:59;;;;;;;23.30;11.88;;;;;;;;;;4937064;29;20047;-73
2022/10/28 00:48:25;;;;;;;27.38;12.63;;;;;;;;;;4937322;29;20044;-73
2022/10/28 00:50:51;;;;;;;21.38;11.07;;;;;;;;;;4936906;29;20048;-73
2022/10/28 00:53:20;;;;;;;26.30;12.13;;;;;;;;;;4936898;29;20043;-73
2022/10/28 00:55:47;;;;;;;27.17;12.07;;;;;;;;;;4936685;29;20103;-73
2022/10/28 00:58:13;;;;;;;26.35;12.00;;;;;;;;;;4936623;29;20099;-73
2022/10/28 01:00:39;;;;;;;21.83;12.77;;;;;;;;;;4938289;29;20070;-73
2022/10/28 01:03:06;;;;;;;26.13;11.55;;;;;;;;;;4940728;29;20046;-73
2022/10/28 01:05:34;;;;;;;20.35;11.77;;;;;;;;;;4940160;29;20040;-73
2022/10/28 01:08:01;;;;;;;24.58;12.23;;;;;;;;;;4940392;29;20043;-73
2022/10/28 01:10:45;;;;;;;17.10;11.25;;;;;;;;;;4940236;29;20067;-73
2022/10/28 01:13:15;;;;;;;26.08;11.82;;;;;;;;;;4940941;29;20487;-73
2022/10/28 01:15:41;;;;;;;25.38;11.70;;;;;;;;;;4940377;29;20044;-73
2022/10/28 01:18:14;;;;;;;21.00;10.98;;;;;;;;;;4940177;29;20130;-73
2022/10/28 01:20:58;;;;;;;30.05;12.40;;;;;;;;;;4940249;29;20047;-73
2022/10/28 01:23:27;;;;;;;21.90;11.63;;;;;;;;;;4940403;29;20507;-73
2022/10/28 01:26:12;;;;;;;23.75;12.05;;;;;;;;;;4939960;29;20134;-73
2022/10/28 01:28:49;;;;;;;27.90;12.23;;;;;;;;;;4940619;29;20515;-73
2022/10/28 01:31:34;;;;;;;26.15;12.23;;;;;;;;;;4940650;29;20051;-73
2022/10/28 01:34:09;;;;;;;27.85;12.43;;;;;;;;;;4940008;29;20035;-73
2022/10/28 01:36:38;;;;;;;19.90;11.80;;;;;;;;;;4940127;29;20054;-73
2022/10/28 01:39:11;;;;;;;21.45;12.07;;;;;;;;;;4939127;29;20071;-73
2022/10/28 01:41:46;;;;;;;25.58;11.68;;;;;;;;;;4940463;29;20066;-73
2022/10/28 01:44:12;;;;;;;25.05;12.02;;;;;;;;;;4939928;29;20078;-73
2022/10/28 01:47:01;;;;;;;23.63;11.27;;;;;;;;;;4940046;29;20106;-73
2022/10/28 01:49:41;;;;;;;21.23;10.98;;;;;;;;;;4940161;29;20446;-73
2022/10/28 01:52:10;;;;;;;22.80;11.50;;;;;;;;;;4939895;29;20039;-73
2022/10/28 01:54:38;;;;;;;17.45;10.65;;;;;;;;;;4939656;29;20115;-73
2022/10/28 01:57:05;;;;;;;26.45;11.30;;;;;;;;;;4940297;29;20134;-73
2022/10/28 01:59:32;;;;;;;31.60;11.52;;;;;;;;;;4939557;29;20522;-73
2022/10/28 02:01:58;;;;;;;21.80;10.82;;;;;;;;;;4939781;29;20040;-73
2022/10/28 02:04:24;;;;;;;23.90;10.52;;;;;;;;;;4939720;29;20040;-73
2022/10/28 02:06:53;;;;;;;22.38;11.43;;;;;;;;;;4939413;29;20088;-73
2022/10/28 02:09:22;;;;;;;20.15;11.18;;;;;;;;;;4939672;29;20043;-73
2022/10/28 02:12:00;;;;;;;25.50;11.90;;;;;;;;;;4953154;28;20046;-73
2022/10/28 02:14:38;;;;;;;22.15;10.57;;;;;;;;;;4939682;29;20094;-73
2022/10/28 02:17:16;;;;;;;16.38;10.52;;;;;;;;;;4938906;29;20107;-73
2022/10/28 02:19:52;;;;;;;26.38;11.48;;;;;;;;;;4939334;29;20043;-73
2022/10/28 02:22:26;;;;;;;21.75;11.10;;;;;;;;;;4939680;29;20039;-73
2022/10/28 02:24:55;;;;;;;23.50;11.20;;;;;;;;;;4939280;29;20102;-73
2022/10/28 02:27:28;;;;;;;23.48;11.68;;;;;;;;;;4939235;29;20044;-73
2022/10/28 02:30:05;;;;;;;23.60;10.52;;;;;;;;;;4939521;29;20047;-73
2022/10/28 02:32:33;;;;;;;22.33;11.20;;;;;;;;;;4938908;29;20511;-73
2022/10/28 02:35:00;;;;;;;24.50;11.23;;;;;;;;;;4938865;29;20507;-73
2022/10/28 02:37:29;;;;;;;26.38;11.82;;;;;;;;;;4939052;29;20055;-73
2022/10/28 02:39:57;;;;;;;21.80;10.82;;;;;;;;;;4938796;29;20496;-73
2022/10/28 02:42:25;;;;;;;20.88;11.15;;;;;;;;;;4939686;29;20060;-73
2022/10/28 02:44:55;;;;;;;25.45;11.30;;;;;;;;;;4938965;29;20047;-73
2022/10/28 02:47:24;;;;;;;20.52;10.57;;;;;;;;;;4939056;29;20048;-73
2022/10/28 02:49:53;;;;;;;18.13;10.88;;;;;;;;;;4939153;29;20048;-73
2022/10/28 02:52:19;;;;;;;28.52;10.30;;;;;;;;;;4938835;29;20090;-73
2022/10/28 02:54:49;;;;;;;25.67;10.30;;;;;;;;;;4938570;29;20130;-73
2022/10/28 02:57:18;;;;;;;27.70;10.95;;;;;;;;;;4938707;29;20047;-73
2022/10/28 02:59:51;;;;;;;23.70;10.75;;;;;;;;;;4938852;29;20036;-73
2022/10/28 03:02:17;;;;;;;24.98;10.98;;;;;;;;;;4939015;29;20116;-73
2022/10/28 03:04:43;;;;;;;24.52;10.90;;;;;;;;;;4938517;29;20505;-73
2022/10/28 03:07:09;;;;;;;20.52;11.00;;;;;;;;;;4938590;29;20048;-73
2022/10/28 03:09:35;;;;;;;18.65;10.45;;;;;;;;;;4938148;29;20126;-73
2022/10/28 03:12:01;;;;;;;24.10;10.40;;;;;;;;;;4938416;29;20047;-73
2022/10/28 03:14:27;;;;;;;25.52;10.75;;;;;;;;;;4938762;29;20538;-73
2022/10/28 03:16:53;;;;;;;22.55;10.63;;;;;;;;;;4938608;29;20051;-73
2022/10/28 03:19:19;;;;;;;19.70;11.20;;;;;;;;;;4938553;29;20094;-73
2022/10/28 03:21:45;;;;;;;26.20;11.10;;;;;;;;;;4938526;29;20046;-73
2022/10/28 03:24:11;;;;;;;25.02;11.65;;;;;;;;;;4937869;29;20051;-73
2022/10/28 03:26:38;;;;;;;28.27;11.18;;;;;;;;;;4937955;29;20047;-73
2022/10/28 03:29:04;;;;;;;24.23;11.43;;;;;;;;;;4938298;29;20118;-73
2022/10/28 03:31:30;;;;;;;28.05;11.10;;;;;;;;;;4952859;29;20051;-73
2022/10/28 03:33:56;;;;;;;20.88;11.02;;;;;;;;;;4937845;29;20505;-73
2022/10/28 03:36:22;;;;;;;26.23;11.38;;;;;;;;;;4938008;29;20047;-73
2022/10/28 03:38:48;;;;;;;19.35;11.27;;;;;;;;;;4938294;29;20047;-73
2022/10/28 03:41:14;;;;;;;27.02;10.95;;;;;;;;;;4937638;29;20178;-73
2022/10/28 03:43:40;;;;;;;24.13;11.77;;;;;;;;;;4938056;29;20118;-73
2022/10/28 03:46:07;;;;;;;25.88;11.55;;;;;;;;;;4937405;29;20146;-73
2022/10/28 03:48:33;;;;;;;30.63;11.65;;;;;;;;;;4937606;29;20131;-73
2022/10/28 03:50:59;;;;;;;24.48;10.82;;;;;;;;;;4937574;29;20040;-73
2022/10/28 03:53:25;;;;;;;22.38;11.40;;;;;;;;;;4937561;29;20487;-73
2022/10/28 03:55:55;;;;;;;25.23;11.20;;;;;;;;;;4937335;29;20040;-73
2022/10/28 03:58:21;;;;;;;22.95;11.27;;;;;;;;;;4937806;29;20115;-73
2022/10/28 04:00:48;;;;;;;29.05;11.48;;;;;;;;;;4937118;29;20035;-73
2022/10/28 04:03:15;;;;;;;22.27;11.02;;;;;;;;;;4937257;29;20031;-73
2022/10/28 04:05:41;;;;;;;29.58;11.25;;;;;;;;;;4937397;29;20035;-73
2022/10/28 04:08:07;;;;;;;26.25;12.00;;;;;;;;;;4937671;29;20047;-73
2022/10/28 04:10:33;;;;;;;27.27;11.40;;;;;;;;;;4937222;29;20051;-73
2022/10/28 04:13:03;;;;;;;31.85;11.70;;;;;;;;;;4937321;29;20060;-73
2022/10/28 04:15:29;;;;;;;26.98;10.65;;;;;;;;;;4937331;29;20047;-73
2022/10/28 04:17:55;;;;;;;23.17;10.57;;;;;;;;;;4937219;29;20190;-73
2022/10/28 04:20:22;;;;;;;22.38;10.50;;;;;;;;;;4937318;29;20054;-73
2022/10/28 04:22:48;;;;;;;33.28;10.35;;;;;;;;;;4937264;29;20134;-73
2022/10/28 04:25:14;;;;;;;28.33;11.68;;;;;;;;;;4936740;29;20035;-73
2022/10/28 04:27:40;;;;;;;29.95;10.73;;;;;;;;;;4937168;29;20055;-73
2022/10/28 04:30:06;;;;;;;20.92;10.63;;;;;;;;;;4937218;29;20044;-73
2022/10/28 04:32:32;;;;;;;23.55;11.35;;;;;;;;;;4937090;29;20051;-73
2022/10/28 04:34:59;;;;;;;27.77;11.25;;;;;;;;;;4937596;29;20044;-73
2022/10/28 04:37:25;;;;;;;25.20;11.02;;;;;;;;;;4941121;29;20098;-73
2022/10/28 04:39:51;;;;;;;25.10;10.93;;;;;;;;;;4940688;29;20044;-73
2022/10/28 04:42:17;;;;;;;19.75;11.10;;;;;;;;;;4941443;29;20487;-73
2022/10/28 04:44:43;;;;;;;27.90;10.98;;;;;;;;;;4941107;29;20035;-73
2022/10/28 04:47:09;;;;;;;22.88;11.15;;;;;;;;;;4941125;29;20184;-73
2022/10/28 04:49:35;;;;;;;22.30;11.55;;;;;;;;;;4940818;29;20503;-73
2022/10/28 04:52:01;;;;;;;23.10;11.02;;;;;;;;;;4940771;29;20079;-73
2022/10/28 04:54:28;;;;;;;28.17;11.80;;;;;;;;;;4940827;29;20391;-73
2022/10/28 04:56:54;;;;;;;22.20;11.15;;;;;;;;;;4941223;29;20059;-73
2022/10/28 04:59:20;;;;;;;28.88;11.18;;;;;;;;;;4941423;29;20066;-73
2022/10/28 05:01:46;;;;;;;27.70;11.82;;;;;;;;;;4940872;29;20047;-73
2022/10/28 05:04:12;;;;;;;23.38;10.77;;;;;;;;;;4941005;29;20044;-73
2022/10/28 05:06:39;;;;;;;20.50;11.10;;;;;;;;;;4941028;29;20471;-73
2022/10/28 05:09:05;;;;;;;29.63;11.63;;;;;;;;;;4940397;29;20040;-73
2022/10/28 05:11:31;;;;;;;23.52;11.10;;;;;;;;;;4940710;29;20133;-73
2022/10/28 05:13:57;;;;;;;22.27;11.20;;;;;;;;;;4940688;29;20055;-73
2022/10/28 05:16:23;;;;;;;22.15;11.57;;;;;;;;;;4940561;29;20090;-73
2022/10/28 05:18:50;;;;;;;23.45;10.43;;;;;;;;;;4941062;29;20051;-73
2022/10/28 05:21:16;;;;;;;25.05;11.23;;;;;;;;;;4940552;29;20048;-73
2022/10/28 05:23:42;;;;;;;24.83;11.23;;;;;;;;;;4940464;29;20461;-73
2022/10/28 05:26:08;;;;;;;27.17;11.80;;;;;;;;;;4939994;29;20070;-73
2022/10/28 05:28:35;;;;;;;25.85;10.95;;;;;;;;;;4940694;29;20118;-73
2022/10/28 05:31:01;;;;;;;26.15;11.15;;;;;;;;;;4940341;29;20040;-73
2022/10/28 05:33:27;;;;;;;21.27;10.38;;;;;;;;;;4940329;29;20480;-73
2022/10/28 05:35:53;;;;;;;27.17;11.13;;;;;;;;;;4940523;29;20054;-73
2022/10/28 05:38:19;;;;;;;26.35;10.25;;;;;;;;;;4926217;29;20095;-73
2022/10/28 05:40:45;;;;;;;26.30;10.27;;;;;;;;;;4909412;29;20059;-73
2022/10/28 05:43:11;;;;;;;24.35;11.73;;;;;;;;;;4911241;29;20100;-73
2022/10/28 05:45:38;;;;;;;30.38;11.38;;;;;;;;;;4920000;29;20506;-73
2022/10/28 05:48:04;;;;;;;22.52;11.32;;;;;;;;;;4917014;29;20040;-73
2022/10/28 05:50:30;;;;;;;31.63;11.93;;;;;;;;;;4918621;29;20104;-73
2022/10/28 05:52:57;;;;;;;27.90;12.30;;;;;;;;;;4919541;29;20039;-73
2022/10/28 05:55:26;;;;;;;36.08;12.82;;;;;;;;;;4919137;29;20048;-73
2022/10/28 05:57:52;;;;;;;28.80;12.50;;;;;;;;;;4919779;29;20098;-73
2022/10/28 06:00:20;;;;;;;30.98;12.85;;;;;;;;;;4919801;29;20059;-73
2022/10/28 06:02:46;;;;;;;29.60;12.02;;;;;;;;;;4919912;29;20403;-73
2022/10/28 06:05:12;;;;;;;23.90;11.80;;;;;;;;;;4919786;29;20051;-73
2022/10/28 06:07:39;;;;;;;27.45;11.43;;;;;;;;;;4919734;29;20503;-73
2022/10/28 06:10:06;;;;;;;24.00;11.35;;;;;;;;;;4920634;29;20484;-73
2022/10/28 06:12:32;;;;;;;27.60;12.60;;;;;;;;;;4920878;29;20127;-73
2022/10/28 06:14:58;;;;;;;23.30;11.57;;;;;;;;;;4920518;29;20067;-73
2022/10/28 06:17:24;;;;;;;33.38;11.55;;;;;;;;;;4919363;29;20048;-73
2022/10/28 06:19:50;;;;;;;24.63;12.05;;;;;;;;;;4918719;29;20052;-74
2022/10/28 06:22:16;;;;;;;23.40;11.98;;;;;;;;;;4935921;29;20044;-73
2022/10/28 06:24:43;;;;;;;27.30;11.57;;;;;;;;;;4927751;29;20055;-73
2022/10/28 06:27:09;;;;;;;30.48;11.55;;;;;;;;;;4918389;29;20044;-74
2022/10/28 06:29:35;;;;;;;28.48;11.80;;;;;;;;;;4938691;29;20050;-73
2022/10/28 06:32:01;;;;;;;25.73;12.05;;;;;;;;;;4932653;29;20579;-74
2022/10/28 06:34:27;;;;;;;27.20;12.00;;;;;;;;;;4920208;29;20040;-73
2022/10/28 06:36:53;;;;;;;23.27;10.85;;;;;;;;;;4920113;29;20059;-74
2022/10/28 06:39:19;;;;;;;25.30;10.95;;;;;;;;;;4920323;29;20484;-73
2022/10/28 06:41:46;;;;;;;25.33;11.43;;;;;;;;;;4919992;29;20064;-73
2022/10/28 06:44:12;;;;;;;22.98;11.38;;;;;;;;;;4919712;29;20032;-73
2022/10/28 06:46:38;;;;;;;28.65;10.88;;;;;;;;;;4919988;29;20073;-73
2022/10/28 06:49:04;;;;;;;25.85;10.32;;;;;;;;;;4919525;29;20396;-73
2022/10/28 06:51:31;;;;;;;23.02;11.15;;;;;;;;;;4919918;29;20551;-73
2022/10/28 06:53:58;;;;;;;28.58;10.63;;;;;;;;;;4919456;29;20032;-73
2022/10/28 06:56:24;;;;;;;26.27;11.07;;;;;;;;;;4919308;29;20063;-73
2022/10/28 06:58:50;;;;;;;29.35;10.88;;;;;;;;;;4919008;29;20051;-73
2022/10/28 07:01:17;;;;;;;26.10;10.13;;;;;;;;;;4919407;29;20060;-74
2022/10/28 07:03:43;;;;;;;23.73;10.07;;;;;;;;;;4919375;29;20040;-74
2022/10/28 07:06:09;;;;;;;29.38;10.68;;;;;;;;;;4919010;29;20047;-74
2022/10/28 07:08:35;;;;;;;23.60;10.43;;;;;;;;;;4919275;29;20048;-74
2022/10/28 07:11:02;;;;;;;25.40;10.43;;;;;;;;;;4919072;29;20048;-74
2022/10/28 07:13:28;;;;;;;24.40;10.35;;;;;;;;;;4919128;29;20044;-74
2022/10/28 07:15:55;;;;;;;25.10;10.57;;;;;;;;;;4918635;29;20072;-74
2022/10/28 07:18:22;;;;;;;31.17;10.55;;;;;;;;;;4918310;29;20048;-74
2022/10/28 07:20:48;;;;;;;30.35;11.27;;;;;;;;;;4918084;29;20055;-74
2022/10/28 07:23:15;;;;;;;25.50;11.25;;;;;;;;;;4918431;29;20098;-74
2022/10/28 07:25:41;;;;;;;25.65;9.93;;;;;;;;;;4918512;29;20416;-74
2022/10/28 07:28:07;;;;;;;23.27;10.20;;;;;;;;;;4918312;29;20543;-74
2022/10/28 07:30:33;;;;;;;33.17;10.48;;;;;;;;;;4918423;29;20492;-74
2022/10/28 07:33:00;;;;;;;22.80;9.98;;;;;;;;;;4917940;29;20051;-74
2022/10/28 07:35:30;;;;;;;29.98;11.00;;;;;;;;;;4918073;29;20047;-75
2022/10/28 07:37:56;;;;;;;29.42;10.55;;;;;;;;;;4919007;29;20052;-74
2022/10/28 07:40:23;;;;;;;25.27;10.98;;;;;;;;;;4918249;29;20044;-74
2022/10/28 07:42:49;;;;;;;17.98;9.82;;;;;;;;;;4919073;29;20500;-74
2022/10/28 07:45:16;;;;;;;24.33;11.30;;;;;;;;;;4917715;29;20542;-75
2022/10/28 07:47:42;;;;;;;27.25;10.50;;;;;;;;;;4918562;29;20043;-75
2022/10/28 07:50:08;;;;;;;25.05;10.18;;;;;;;;;;4918453;29;20047;-75
2022/10/28 07:52:35;;;;;;;28.73;10.32;;;;;;;;;;4918316;29;20075;-75
2022/10/28 07:55:01;;;;;;;26.13;10.90;;;;;;;;;;4917728;29;20051;-75
2022/10/28 07:57:27;;;;;;;27.23;10.52;;;;;;;;;;4918990;29;20087;-75
2022/10/28 07:59:54;;;;;;;23.23;10.80;;;;;;;;;;4918080;29;20509;-75
2022/10/28 08:02:23;;;;;;;27.77;10.45;;;;;;;;;;4917267;29;20036;-74
2022/10/28 08:04:49;;;;;;;21.70;10.68;;;;;;;;;;4918652;29;20076;-75
2022/10/28 08:07:15;;;;;;;27.02;11.15;;;;;;;;;;4917627;29;20051;-76
2022/10/28 08:09:41;;;;;;;32.65;10.57;;;;;;;;;;4901074;29;20519;-74
2022/10/28 08:12:08;;;;;;;24.95;10.30;;;;;;;;;;4899232;29;20036;-75
2022/10/28 08:14:34;;;;;;;22.55;10.48;;;;;;;;;;4907835;29;20044;-74
2022/10/28 08:17:00;;;;;;;27.38;10.43;;;;;;;;;;4916978;29;20052;-74
2022/10/28 08:19:26;;;;;;;30.80;11.05;;;;;;;;;;4917750;29;20075;-74
2022/10/28 08:21:53;;;;;;;26.23;10.27;;;;;;;;;;4918055;29;20424;-75
2022/10/28 08:24:19;;;;;;;28.48;10.27;;;;;;;;;;4917330;29;20048;-75
2022/10/28 08:26:45;;;;;;;23.55;9.85;;;;;;;;;;4917887;29;20044;-74
2022/10/28 08:29:11;;;;;;;28.05;10.38;;;;;;;;;;4917733;29;20059;-74
2022/10/28 08:31:38;;;;;;;23.15;8.95;;;;;;;;;;4917304;29;20052;-74
2022/10/28 08:34:05;;;;;;;25.88;11.30;;;;;;;;;;4918056;29;20047;-74
2022/10/28 08:36:31;;;;;;;27.17;11.98;;;;;;;;;;4917666;29;20499;-75
2022/10/28 08:39:01;;;;;;;27.63;11.32;;;;;;;;;;4917822;29;20056;-75
2022/10/28 08:41:39;;;;;;;24.00;10.10;;;;;;;;;;4917377;29;20064;-74
2022/10/28 08:44:22;;;;;;;22.65;10.07;;;;;;;;;;4916843;29;20051;-74
2022/10/28 08:47:07;;;;;;;28.17;9.95;;;;;;;;;;4916227;29;20547;-74
2022/10/28 08:49:35;;;;;;;22.17;9.90;;;;;;;;;;4917836;29;20055;-74
2022/10/28 08:52:09;;;;;;;20.80;9.32;;;;;;;;;;4917076;29;20071;-75
2022/10/28 08:54:55;;;;;;;34.58;10.60;;;;;;;;;;4917230;29;20048;-74
2022/10/28 08:57:28;;;;;;;27.27;9.30;;;;;;;;;;4916639;29;20083;-75
2022/10/28 08:59:54;;;;;;;25.23;9.77;;;;;;;;;;4917996;29;20048;-75
2022/10/28 09:02:22;;;;;;;32.45;10.25;;;;;;;;;;4917437;29;20040;-76
2022/10/28 09:04:51;;;;;;;23.33;9.77;;;;;;;;;;4917506;29;20056;-74
2022/10/28 09:07:18;;;;;;;27.70;9.93;;;;;;;;;;4918938;29;20048;-75
2022/10/28 09:09:45;;;;;;;20.17;7.80;;;;;;;;;;4928977;29;20474;-76
2022/10/28 09:12:11;;;;;;;24.50;9.02;;;;;;;;;;4916802;29;20393;-74
2022/10/28 09:14:41;;;;;;;28.75;8.70;;;;;;;;;;4916688;29;20404;-73
2022/10/28 09:17:19;;;;;;;30.15;9.02;;;;;;;;;;4916926;29;20159;-74
2022/10/28 09:19:49;;;;;;;20.70;9.23;;;;;;;;;;4914296;29;20074;-74
2022/10/28 09:22:28;;;;;;;24.23;9.13;;;;;;;;;;4919794;29;20055;-75
2022/10/28 09:25:06;;;;;;;19.65;8.40;;;;;;;;;;4919175;29;20047;-75
2022/10/28 09:27:51;;;;;;;23.15;8.85;;;;;;;;;;4919385;29;20056;-75
2022/10/28 09:30:26;;;;;;;22.27;8.30;;;;;;;;;;4919964;29;20040;-76
2022/10/28 09:33:04;;;;;;;28.35;13.43;;;;;;;;;;4920135;29;20040;-76
2022/10/28 09:35:33;;;;;;;27.02;12.43;;;;;;;;;;4919152;29;20052;-75
2022/10/28 09:38:05;;;;;;;27.67;9.95;;;;;;;;;;4917797;29;20048;-75
2022/10/28 09:40:33;;;;;;;20.55;9.40;;;;;;;;;;4919645;29;20064;-75
2022/10/28 09:43:16;;;;;;;26.95;11.15;;;;;;;;;;4917871;29;20050;-77
2022/10/28 09:45:45;;;;;;;22.27;9.20;;;;;;;;;;4917850;29;20048;-76
2022/10/28 09:48:11;;;;;;;24.67;8.13;;;;;;;;;;4919837;29;20048;-75
2022/10/28 09:50:38;;;;;;;19.42;6.93;;;;;;;;;;4919497;29;20055;-75
2022/10/28 09:53:27;;;;;;;16.85;6.68;;;;;;;;;;4919756;29;20044;-75
2022/10/28 09:55:55;;;;;;;21.98;7.47;;;;;;;;;;4914704;29;20039;-75
2022/10/28 09:58:21;;;;;;;15.52;6.53;;;;;;;;;;4920094;29;20127;-75
2022/10/28 10:00:48;;;;;;;25.23;8.65;;;;;;;;;;4918773;29;20050;-75
2022/10/28 10:03:15;;;;;;;26.00;8.77;;;;;;;;;;4919242;29;20040;-74
2022/10/28 10:05:43;;;;;;;24.92;7.50;;;;;;;;;;4919228;29;20044;-75
2022/10/28 10:08:12;;;;;;;25.15;7.70;;;;;;;;;;4919640;29;20047;-75
2022/10/28 10:10:49;;;;;;;20.35;7.57;;;;;;;;;;4919624;29;20055;-74
2022/10/28 10:13:17;;;;;;;17.30;6.68;;;;;;;;;;4919724;29;20044;-74
2022/10/28 10:15:46;;;;;;;20.15;7.28;;;;;;;;;;4916690;29;20119;-75
2022/10/28 10:18:15;;;;;;;24.45;8.70;;;;;;;;;;4919544;29;20048;-75
2022/10/28 10:20:47;;;;;;;25.13;6.63;;;;;;;;;;4919276;29;20095;-75
2022/10/28 10:23:26;;;;;;;24.23;7.40;;;;;;;;;;4919381;29;20039;-75
2022/10/28 10:25:59;;;;;;;21.52;8.20;;;;;;;;;;4919658;29;20641;-76
2022/10/28 10:28:26;;;;;;;15.80;6.90;;;;;;;;;;4919131;29;20474;-75
2022/10/28 10:30:53;;;;;;;25.40;7.18;;;;;;;;;;4919285;29;20157;-74
2022/10/28 10:33:28;;;;;;;21.23;7.63;;;;;;;;;;4918643;29;20044;-74
2022/10/28 10:35:56;;;;;;;21.58;8.05;;;;;;;;;;4919877;29;20044;-75
2022/10/28 10:38:22;;;;;;;28.00;8.38;;;;;;;;;;4919023;29;20115;-73
2022/10/28 10:40:50;;;;;;;20.98;6.70;;;;;;;;;;4919463;29;20048;-72
2022/10/28 10:43:31;;;;;;;19.30;7.63;;;;;;;;;;4919296;29;20047;-79
2022/10/28 10:46:05;;;;;;;20.95;7.55;;;;;;;;;;4919973;29;20127;-77
2022/10/28 10:48:35;;;;;;;26.67;6.93;;;;;;;;;;4918073;29;20116;-77
2022/10/28 10:51:05;;;;;;;22.73;7.63;;;;;;;;;;4915071;29;20044;-76
2022/10/28 10:53:31;;;;;;;;;;;;;;;;;;4920077;29;20078;-77
2022/10/28 10:56:01;;;;;;;18.85;7.05;;;;;;;;;;4918398;29;20344;-77
2022/10/28 10:58:29;;;;;;;19.23;6.53;;;;;;;;;;4919795;29;20044;-78
2022/10/28 11:00:57;;;;;;;18.52;7.43;;;;;;;;;;4918538;29;20072;-77
2022/10/28 11:03:43;;;;;;;25.88;7.40;;;;;;;;;;4919342;29;20131;-79
2022/10/28 11:06:18;;;;;;;20.88;7.00;;;;;;;;;;4912304;29;20044;-77
2022/10/28 11:08:44;;;;;;;20.70;7.50;;;;;;;;;;4919028;29;20040;-78
2022/10/28 11:11:12;;;;;;;26.92;7.80;;;;;;;;;;4918184;29;20044;-79
2022/10/28 11:13:39;;;;;;;21.58;8.85;;;;;;;;;;4919461;29;20043;-79
2022/10/28 11:16:07;;;;;;;18.38;6.88;;;;;;;;;;4919637;29;20126;-79
2022/10/28 11:18:41;;;;;;;19.02;6.88;;;;;;;;;;4918639;29;20044;-77
2022/10/28 11:21:26;;;;;;;23.80;7.90;;;;;;;;;;4918940;29;20044;-79
2022/10/28 11:24:04;;;;;;;21.05;8.50;;;;;;;;;;4918727;29;20040;-79
2022/10/28 11:26:34;;;;;;;26.20;7.35;;;;;;;;;;4918057;29;20056;-80
2022/10/28 11:29:03;;;;;;;18.15;6.88;;;;;;;;;;4919093;29;20102;-81
2022/10/28 11:31:29;;;;;;;60.40;30.52;;;;;;;;;;4919006;29;20044;-79
2022/10/28 11:34:13;;;;;;;18.00;7.20;;;;;;;;;;4919100;29;20503;-80
2022/10/28 11:36:40;;;;;;;20.35;7.07;;;;;;;;;;4916466;29;20051;-79
2022/10/28 11:39:09;;;;;;;23.13;7.25;;;;;;;;;;4917091;29;20048;-81
2022/10/28 11:41:40;;;;;;;22.42;7.90;;;;;;;;;;4918525;29;20063;-77
2022/10/28 11:44:14;;;;;;;19.08;6.78;;;;;;;;;;4918509;29;20052;-74
2022/10/28 11:46:46;;;;;;;18.55;6.78;;;;;;;;;;4918930;29;20056;-78
2022/10/28 11:49:12;;;;;;;15.50;6.90;;;;;;;;;;4918781;29;20074;-78
2022/10/28 11:51:57;;;;;;;18.60;7.18;;;;;;;;;;4918407;29;20036;-75
2022/10/28 11:54:39;;;;;;;17.95;6.97;;;;;;;;;;4918146;29;20043;-77
2022/10/28 11:57:10;;;;;;;24.77;7.93;;;;;;;;;;4900427;29;20048;-78
2022/10/28 11:59:39;;;;;;;16.63;7.63;;;;;;;;;;4899985;29;20127;-79
2022/10/28 12:02:11;;;;;;;23.50;7.20;;;;;;;;;;4916647;29;20043;-77
2022/10/28 12:05:01;;;;;;;20.88;7.15;;;;;;;;;;4917845;29;20072;-77
2022/10/28 12:07:42;;;;;;;15.00;6.90;;;;;;;;;;4917970;29;20055;-76
2022/10/28 12:10:22;;;;;;;26.02;8.63;;;;;;;;;;4918191;29;20052;-77
2022/10/28 12:13:04;;;;;;;26.85;8.07;;;;;;;;;;4918600;29;20055;-76
2022/10/28 12:15:36;;;;;;;17.42;7.35;;;;;;;;;;4917979;29;20044;-77
2022/10/28 12:18:18;;;;;;;18.90;6.57;;;;;;;;;;4917702;29;20487;-77
2022/10/28 12:20:44;;;;;;;15.20;6.63;;;;;;;;;;4918251;29;20135;-77
2022/10/28 12:23:16;;;;;;;22.30;7.68;;;;;;;;;;4918475;29;20059;-77
2022/10/28 12:25:44;;;;;;;24.75;9.00;;;;;;;;;;4918054;29;20399;-77
2022/10/28 12:28:25;;;;;;;24.95;8.23;;;;;;;;;;4918402;29;20051;-77
2022/10/28 12:30:52;;;;;;;26.40;7.40;;;;;;;;;;4918224;29;20099;-77
2022/10/28 12:33:42;;;;;;;18.35;7.65;;;;;;;;;;4918124;29;20044;-77
2022/10/28 12:36:08;;;;;;;16.58;7.25;;;;;;;;;;4919069;29;20059;-77
2022/10/28 12:38:46;;;;;;;16.13;7.20;;;;;;;;;;4917521;29;20499;-77
2022/10/28 12:41:18;;;;;;;24.02;9.82;;;;;;;;;;4918002;29;20056;-77
2022/10/28 12:43:44;;;;;;;25.23;9.93;;;;;;;;;;4918193;29;20036;-77
2022/10/28 12:46:22;;;;;;;22.77;7.63;;;;;;;;;;4916827;29;20404;-77
2022/10/28 12:48:51;;;;;;;23.63;6.80;;;;;;;;;;4918172;29;20095;-77
2022/10/28 12:51:21;;;;;;;16.52;6.63;;;;;;;;;;4917750;29;20400;-78
2022/10/28 12:53:47;;;;;;;;;;;;;;;;;;4918954;29;20099;-78
2022/10/28 12:56:25;;;;;;;17.42;7.07;;;;;;;;;;4918894;29;19911;-77
2022/10/28 12:58:52;;;;;;;20.92;7.53;;;;;;;;;;4921942;29;20072;-77
2022/10/28 13:01:19;;;;;;;20.90;7.93;;;;;;;;;;4921540;29;20044;-77
2022/10/28 13:03:46;;;;;;;21.25;7.45;;;;;;;;;;4921322;29;20044;-77
2022/10/28 13:06:24;;;;;;;17.42;7.15;;;;;;;;;;4921513;29;20488;-77
2022/10/28 13:09:09;;;;;;;22.75;8.13;;;;;;;;;;4921605;29;20048;-77
2022/10/28 13:11:46;;;;;;;16.80;7.00;;;;;;;;;;4921134;29;20043;-77
2022/10/28 13:14:19;;;;;;;16.38;6.85;;;;;;;;;;4921481;29;20128;-77
2022/10/28 13:17:00;;;;;;;18.35;6.72;;;;;;;;;;4920843;29;20131;-78
2022/10/28 13:19:45;;;;;;;18.80;7.45;;;;;;;;;;4921548;29;20092;-77
2022/10/28 13:22:30;;;;;;;20.30;7.38;;;;;;;;;;4921502;29;20040;-77
2022/10/28 13:25:14;;;;;;;14.38;6.93;;;;;;;;;;4920762;29;20040;-77
2022/10/28 13:27:41;;;;;;;20.65;8.85;;;;;;;;;;4921240;29;20131;-77
2022/10/28 13:30:15;;;;;;;25.35;9.38;;;;;;;;;;4921335;29;20036;-78
2022/10/28 13:32:41;;;;;;;20.45;7.95;;;;;;;;;;4921150;29;20052;-77
2022/10/28 13:35:13;;;;;;;19.02;7.28;;;;;;;;;;4920807;29;20107;-77
2022/10/28 13:37:40;;;;;;;18.65;7.63;;;;;;;;;;4921206;29;20087;-78
2022/10/28 13:40:19;;;;;;;22.25;7.32;;;;;;;;;;4920749;29;20446;-76
2022/10/28 13:42:47;;;;;;;21.67;8.65;;;;;;;;;;4921474;29;20483;-77
2022/10/28 13:45:31;;;;;;;19.45;6.97;;;;;;;;;;4920889;29;20530;-76
2022/10/28 13:48:24;;;;;;;32.53;8.70;;;;;;;;;;4921001;29;20040;-77
2022/10/28 13:50:50;;;;;;;18.40;7.25;;;;;;;;;;4905727;29;20062;-77
2022/10/28 13:53:28;;;;;;;23.10;7.93;;;;;;;;;;4921039;29;20047;-77
2022/10/28 13:55:58;;;;;;;16.98;7.38;;;;;;;;;;4919164;29;20452;-77
2022/10/28 13:58:25;;;;;;;25.98;7.72;;;;;;;;;;4920875;29;20048;-77
2022/10/28 14:00:52;;;;;;;21.45;6.85;;;;;;;;;;4920075;29;20044;-78
2022/10/28 14:03:21;;;;;;;22.42;7.97;;;;;;;;;;4919963;29;20391;-77
2022/10/28 14:05:47;;;;;;;20.17;7.32;;;;;;;;;;4920782;29;20131;-77
2022/10/28 14:08:43;;;;;;;20.52;7.45;;;;;;;;;;4920457;29;20055;-77
2022/10/28 14:11:13;;;;;;;19.05;7.28;;;;;;;;;;4915112;29;20051;-77
2022/10/28 14:13:51;;;;;;;15.80;6.82;;;;;;;;;;4919202;29;20040;-77
2022/10/28 14:16:26;;;;;;;22.92;7.28;;;;;;;;;;4920527;29;20096;-77
2022/10/28 14:18:55;;;;;;;23.05;7.85;;;;;;;;;;4920454;29;20099;-77
2022/10/28 14:21:22;;;;;;;16.80;7.68;;;;;;;;;;4920376;29;20052;-77
2022/10/28 14:23:48;;;;;;;23.90;8.35;;;;;;;;;;4919616;29;20037;-77
2022/10/28 14:26:14;;;;;;;22.38;7.85;;;;;;;;;;4920818;29;20488;-77
2022/10/28 14:28:40;;;;;;;19.80;7.72;;;;;;;;;;4919578;29;20055;-77
2022/10/28 14:31:13;;;;;;;24.10;7.65;;;;;;;;;;4919132;29;20048;-77
2022/10/28 14:33:39;;;;;;;21.38;6.93;;;;;;;;;;4920421;29;20040;-76
2022/10/28 14:36:20;;;;;;;19.38;7.15;;;;;;;;;;4919284;29;20063;-77
2022/10/28 14:39:04;;;;;;;20.10;7.65;;;;;;;;;;4919856;29;20444;-78